Time;durP1;ratioP1;P1;durP2;ratioP2;P2;SDS_P1;SDS_P2;PMS_P1;PMS_P2;Temp;Humidity;BMP_temperature;BMP_pressure;BME280_temperature;BME280_humidity;BME280_pressure;Samples;Min_cycle;Max_cycle;Signal;HPM_P1;HPM_P2
2021/06/03 00:00:54;;;;;;;27.20;18.20;;;;;;;;;;5057053;28;20517;-55
2021/06/03 00:03:22;;;;;;;11.37;7.87;;;;;;;;;;5056928;28;20506;-60
2021/06/03 00:05:50;;;;;;;9.80;4.30;;;;;;;;;;5057724;28;20442;-58
2021/06/03 00:08:19;;;;;;;6.43;3.77;;;;;;;;;;5048916;28;20472;-56
2021/06/03 00:10:47;;;;;;;7.20;5.20;;;;;;;;;;5039821;28;20458;-59
2021/06/03 00:13:14;;;;;;;8.07;4.40;;;;;;;;;;5052319;28;20498;-55
2021/06/03 00:15:45;;;;;;;4.90;2.77;;;;;;;;;;5040894;28;20466;-57
2021/06/03 00:18:11;;;;;;;9.40;6.37;;;;;;;;;;5047852;28;20453;-59
2021/06/03 00:20:38;;;;;;;8.90;4.20;;;;;;;;;;5056627;28;20468;-58
2021/06/03 00:23:06;;;;;;;4.97;3.80;;;;;;;;;;5055449;28;20489;-56
2021/06/03 00:25:34;;;;;;;7.53;3.90;;;;;;;;;;5050370;28;20466;-55
2021/06/03 00:28:01;;;;;;;7.87;3.53;;;;;;;;;;5037133;28;20467;-55
2021/06/03 00:30:28;;;;;;;11.13;4.37;;;;;;;;;;5048407;28;20470;-54
2021/06/03 00:32:57;;;;;;;6.03;4.00;;;;;;;;;;5055416;28;20489;-57
2021/06/03 00:35:24;;;;;;;11.00;6.20;;;;;;;;;;5057328;28;20454;-56
2021/06/03 00:37:51;;;;;;;10.83;4.17;;;;;;;;;;5055560;28;20525;-56
2021/06/03 00:40:19;;;;;;;23.03;15.27;;;;;;;;;;5056071;28;20493;-56
2021/06/03 00:42:46;;;;;;;8.00;3.90;;;;;;;;;;5057086;28;20525;-54
2021/06/03 00:45:14;;;;;;;7.77;3.83;;;;;;;;;;5056359;28;20449;-58
2021/06/03 00:47:48;;;;;;;5.47;3.20;;;;;;;;;;5056026;28;20441;-58
2021/06/03 00:50:19;;;;;;;6.20;3.70;;;;;;;;;;5057132;28;20453;-57
2021/06/03 00:52:45;;;;;;;7.00;4.10;;;;;;;;;;5056333;28;20517;-54
2021/06/03 00:55:12;;;;;;;9.87;4.13;;;;;;;;;;5056720;28;20460;-59
2021/06/03 00:57:53;;;;;;;6.50;4.30;;;;;;;;;;5057601;28;20457;-62
2021/06/03 01:00:25;;;;;;;7.37;4.43;;;;;;;;;;5041739;28;20459;-55
2021/06/03 01:02:52;;;;;;;12.10;7.87;;;;;;;;;;5036525;28;20856;-58
2021/06/03 01:05:24;;;;;;;7.60;4.50;;;;;;;;;;5036346;28;20518;-55
2021/06/03 01:07:53;;;;;;;9.00;5.60;;;;;;;;;;5038353;28;20479;-60
2021/06/03 01:10:21;;;;;;;17.83;4.93;;;;;;;;;;5037105;28;20514;-55
2021/06/03 01:12:52;;;;;;;79.97;64.53;;;;;;;;;;5036826;28;20554;-61
2021/06/03 01:15:19;;;;;;;10.00;8.47;;;;;;;;;;5037345;28;20561;-57
2021/06/03 01:17:56;;;;;;;11.03;6.53;;;;;;;;;;5037138;28;20446;-59
2021/06/03 01:20:25;;;;;;;7.17;4.90;;;;;;;;;;5036911;28;20462;-57
2021/06/03 01:22:56;;;;;;;15.03;11.00;;;;;;;;;;5037294;28;20461;-56
2021/06/03 01:25:34;;;;;;;8.87;5.70;;;;;;;;;;5037261;28;20497;-57
2021/06/03 01:28:01;;;;;;;17.00;11.27;;;;;;;;;;5051766;28;20485;-58
2021/06/03 01:30:30;;;;;;;8.47;5.57;;;;;;;;;;5056910;28;20472;-54
2021/06/03 01:32:58;;;;;;;6.20;4.70;;;;;;;;;;5056643;28;20498;-56
2021/06/03 01:35:26;;;;;;;7.20;3.90;;;;;;;;;;5057318;28;20484;-58
2021/06/03 01:38:13;;;;;;;6.20;4.50;;;;;;;;;;5057430;28;20482;-55
2021/06/03 01:40:44;;;;;;;8.47;3.47;;;;;;;;;;5054477;28;20561;-53
2021/06/03 01:43:12;;;;;;;5.00;3.60;;;;;;;;;;5056262;28;20490;-57
2021/06/03 01:45:42;;;;;;;5.50;3.93;;;;;;;;;;5055928;28;20481;-62
2021/06/03 01:48:10;;;;;;;4.80;3.23;;;;;;;;;;5055376;28;20548;-57
2021/06/03 01:50:37;;;;;;;5.50;3.53;;;;;;;;;;5056018;28;20530;-54
2021/06/03 01:53:05;;;;;;;5.90;3.77;;;;;;;;;;5055756;28;20485;-57
2021/06/03 01:55:32;;;;;;;7.37;3.80;;;;;;;;;;5055812;28;20456;-51
2021/06/03 01:58:06;;;;;;;4.60;3.33;;;;;;;;;;5056064;28;20521;-58
2021/06/03 02:00:34;;;;;;;7.50;3.57;;;;;;;;;;5056092;28;20454;-59
2021/06/03 02:03:01;;;;;;;10.73;3.20;;;;;;;;;;5055892;28;20442;-58
2021/06/03 02:05:28;;;;;;;5.83;3.57;;;;;;;;;;5056547;28;20462;-56
2021/06/03 02:07:55;;;;;;;6.70;3.60;;;;;;;;;;5055980;28;20458;-59
2021/06/03 02:10:27;;;;;;;3.90;3.07;;;;;;;;;;5056116;28;20454;-60
2021/06/03 02:12:57;;;;;;;4.90;3.43;;;;;;;;;;5056066;28;20544;-59
2021/06/03 02:15:25;;;;;;;7.10;3.43;;;;;;;;;;5056750;28;20461;-58
2021/06/03 02:17:54;;;;;;;5.63;2.90;;;;;;;;;;5055939;28;20525;-60
2021/06/03 02:20:24;;;;;;;7.00;3.40;;;;;;;;;;5055908;28;20548;-57
2021/06/03 02:22:56;;;;;;;5.70;5.10;;;;;;;;;;5056597;28;20477;-59
2021/06/03 02:25:23;;;;;;;5.40;4.00;;;;;;;;;;5056633;28;20739;-53
2021/06/03 02:27:50;;;;;;;9.10;3.43;;;;;;;;;;5056395;28;20462;-61
2021/06/03 02:30:23;;;;;;;3.97;2.80;;;;;;;;;;5056711;28;20457;-52
2021/06/03 02:32:52;;;;;;;4.50;2.67;;;;;;;;;;5056515;28;20490;-53
2021/06/03 02:35:19;;;;;;;4.77;2.80;;;;;;;;;;5056444;28;20517;-62
2021/06/03 02:37:51;;;;;;;5.50;3.10;;;;;;;;;;5056296;28;20446;-55
2021/06/03 02:40:19;;;;;;;5.33;3.30;;;;;;;;;;5055467;28;20512;-56
2021/06/03 02:42:48;;;;;;;3.87;2.83;;;;;;;;;;5055593;28;20465;-60
2021/06/03 02:45:22;;;;;;;5.13;2.47;;;;;;;;;;5056144;28;20446;-62
2021/06/03 02:47:49;;;;;;;3.80;2.90;;;;;;;;;;5056100;28;20454;-55
2021/06/03 02:50:17;;;;;;;5.67;3.30;;;;;;;;;;5055569;28;20876;-55
2021/06/03 02:52:44;;;;;;;4.70;2.60;;;;;;;;;;5054620;28;20494;-61
2021/06/03 02:55:13;;;;;;;4.23;2.63;;;;;;;;;;5055295;28;20427;-58
2021/06/03 02:57:42;;;;;;;6.10;2.30;;;;;;;;;;5055195;28;20438;-56
2021/06/03 03:00:10;;;;;;;4.10;2.70;;;;;;;;;;5054785;28;20446;-55
2021/06/03 03:02:37;;;;;;;4.23;2.50;;;;;;;;;;5054665;28;20671;-58
2021/06/03 03:05:06;;;;;;;3.67;2.40;;;;;;;;;;5055598;28;20462;-55
2021/06/03 03:07:34;;;;;;;8.70;3.17;;;;;;;;;;5054695;28;20533;-57
2021/06/03 03:10:07;;;;;;;3.63;2.47;;;;;;;;;;5055092;28;20435;-58
2021/06/03 03:12:34;;;;;;;4.30;2.50;;;;;;;;;;5054195;28;20490;-57
2021/06/03 03:15:01;;;;;;;6.40;2.50;;;;;;;;;;5055189;28;20497;-57
2021/06/03 03:17:28;;;;;;;4.90;3.10;;;;;;;;;;5054786;28;20442;-53
2021/06/03 03:19:55;;;;;;;5.10;3.23;;;;;;;;;;5053994;28;20458;-60
2021/06/03 03:22:25;;;;;;;4.50;2.53;;;;;;;;;;5054665;28;20458;-52
2021/06/03 03:24:55;;;;;;;3.57;2.57;;;;;;;;;;5055139;28;20446;-58
2021/06/03 03:27:33;;;;;;;10.17;3.13;;;;;;;;;;5054709;28;20450;-56
2021/06/03 03:30:00;;;;;;;6.77;1.90;;;;;;;;;;5054465;28;20696;-56
2021/06/03 03:32:26;;;;;;;6.30;2.53;;;;;;;;;;5055032;28;20580;-57
2021/06/03 03:35:17;;;;;;;3.83;2.23;;;;;;;;;;5054762;28;20466;-59
2021/06/03 03:37:44;;;;;;;6.90;2.90;;;;;;;;;;5053076;28;20505;-57
2021/06/03 03:40:15;;;;;;;5.13;2.67;;;;;;;;;;5055301;28;20525;-59
2021/06/03 03:42:42;;;;;;;4.13;2.50;;;;;;;;;;5055471;28;20514;-59
2021/06/03 03:45:10;;;;;;;9.80;2.57;;;;;;;;;;5055076;28;20458;-57
2021/06/03 03:47:45;;;;;;;3.07;2.03;;;;;;;;;;5055350;28;20453;-59
2021/06/03 03:50:16;;;;;;;4.00;2.40;;;;;;;;;;5046801;28;20493;-60
2021/06/03 03:52:43;;;;;;;4.90;2.97;;;;;;;;;;5040271;28;20486;-57
2021/06/03 03:55:12;;;;;;;4.43;2.80;;;;;;;;;;5034965;28;20458;-56
2021/06/03 03:57:40;;;;;;;3.53;2.43;;;;;;;;;;5034891;28;20518;-59
2021/06/03 04:00:10;;;;;;;3.67;2.30;;;;;;;;;;5034971;28;20443;-59
2021/06/03 04:02:37;;;;;;;4.17;2.80;;;;;;;;;;5034680;28;20455;-57
2021/06/03 04:05:05;;;;;;;5.00;2.50;;;;;;;;;;5034721;28;20534;-59
2021/06/03 04:07:32;;;;;;;7.30;2.97;;;;;;;;;;5034689;28;20470;-59
2021/06/03 04:09:59;;;;;;;3.23;2.00;;;;;;;;;;5036939;28;20467;-52
2021/06/03 04:12:25;;;;;;;4.23;2.80;;;;;;;;;;5033611;28;20470;-59
2021/06/03 04:14:54;;;;;;;5.27;2.60;;;;;;;;;;5033942;28;20443;-55
2021/06/03 04:17:27;;;;;;;4.20;2.23;;;;;;;;;;5033847;28;20481;-60
2021/06/03 04:19:54;;;;;;;4.77;2.57;;;;;;;;;;5032946;28;20526;-57
2021/06/03 04:22:21;;;;;;;4.60;2.70;;;;;;;;;;5033493;28;20459;-58
2021/06/03 04:24:55;;;;;;;4.60;2.40;;;;;;;;;;5033070;28;20467;-56
2021/06/03 04:27:22;;;;;;;3.70;2.50;;;;;;;;;;5033208;28;20458;-57
2021/06/03 04:29:51;;;;;;;3.93;2.37;;;;;;;;;;5032866;28;20556;-56
2021/06/03 04:32:27;;;;;;;3.53;2.33;;;;;;;;;;5035740;28;20553;-55
2021/06/03 04:34:54;;;;;;;5.07;2.93;;;;;;;;;;5036362;28;20517;-57
2021/06/03 04:37:21;;;;;;;3.90;2.20;;;;;;;;;;5036608;28;20532;-60
2021/06/03 04:39:47;;;;;;;4.60;2.57;;;;;;;;;;5036839;28;20458;-59
2021/06/03 04:42:14;;;;;;;3.50;2.17;;;;;;;;;;5036892;28;20435;-62
2021/06/03 04:44:44;;;;;;;4.77;2.40;;;;;;;;;;5036445;28;20460;-63
2021/06/03 04:47:11;;;;;;;5.20;2.63;;;;;;;;;;5036674;28;20477;-59
2021/06/03 04:49:39;;;;;;;4.87;2.33;;;;;;;;;;5036994;28;20478;-53
2021/06/03 04:54:47;;;;;;;6.03;2.50;;;;;;;;;;5036886;28;20430;-62
2021/06/03 04:57:14;;;;;;;3.60;2.10;;;;;;;;;;5038534;28;20489;-55
2021/06/03 04:59:41;;;;;;;3.33;2.27;;;;;;;;;;5039047;28;20446;-61
2021/06/03 05:02:08;;;;;;;2.80;1.80;;;;;;;;;;5038714;28;20506;-61
2021/06/03 05:04:39;;;;;;;5.00;2.03;;;;;;;;;;5038312;28;20543;-54
2021/06/03 05:07:06;;;;;;;3.73;2.10;;;;;;;;;;5038189;28;20473;-59
2021/06/03 05:09:43;;;;;;;5.07;2.53;;;;;;;;;;5037812;28;20467;-55
2021/06/03 05:12:10;;;;;;;3.93;2.30;;;;;;;;;;5038207;28;20523;-54
2021/06/03 05:14:37;;;;;;;3.90;2.23;;;;;;;;;;5037995;28;20443;-56
2021/06/03 05:17:05;;;;;;;8.83;2.43;;;;;;;;;;5037900;28;20484;-56
2021/06/03 05:19:31;;;;;;;4.73;2.40;;;;;;;;;;5038141;28;20442;-59
2021/06/03 05:22:01;;;;;;;4.77;2.37;;;;;;;;;;5038433;28;20466;-61
2021/06/03 05:24:28;;;;;;;3.83;2.60;;;;;;;;;;5038207;28;20777;-58
2021/06/03 05:26:55;;;;;;;4.60;2.20;;;;;;;;;;5038262;28;20463;-59
2021/06/03 05:29:22;;;;;;;3.30;2.40;;;;;;;;;;5038107;28;20444;-58
2021/06/03 05:31:49;;;;;;;6.73;2.77;;;;;;;;;;5037848;28;20470;-57
2021/06/03 05:34:16;;;;;;;3.67;2.30;;;;;;;;;;5037675;28;21029;-59
2021/06/03 05:36:43;;;;;;;4.73;2.20;;;;;;;;;;5037928;28;20514;-55
2021/06/03 05:39:13;;;;;;;3.70;2.70;;;;;;;;;;5037594;28;20474;-57
2021/06/03 05:41:40;;;;;;;4.03;2.20;;;;;;;;;;5037415;28;20451;-55
2021/06/03 05:44:08;;;;;;;10.80;2.60;;;;;;;;;;5036868;28;20462;-57
2021/06/03 05:46:35;;;;;;;6.00;2.60;;;;;;;;;;5036974;28;20458;-57
2021/06/03 05:49:01;;;;;;;6.17;2.60;;;;;;;;;;5037308;28;20447;-60
2021/06/03 05:51:28;;;;;;;3.33;1.93;;;;;;;;;;5043247;28;20469;-58
2021/06/03 05:53:56;;;;;;;6.37;2.50;;;;;;;;;;5057347;28;20490;-57
2021/06/03 05:56:25;;;;;;;5.37;2.10;;;;;;;;;;5056919;28;20453;-60
2021/06/03 05:58:52;;;;;;;3.30;1.90;;;;;;;;;;5056480;28;20478;-57
2021/06/03 06:01:19;;;;;;;3.50;2.17;;;;;;;;;;5056642;28;20437;-59
2021/06/03 06:03:49;;;;;;;3.30;1.90;;;;;;;;;;5056405;28;20431;-55
2021/06/03 06:06:25;;;;;;;3.57;2.20;;;;;;;;;;5056482;28;20522;-61
2021/06/03 06:08:56;;;;;;;5.13;2.03;;;;;;;;;;5046089;28;20450;-57
2021/06/03 06:11:26;;;;;;;6.67;2.10;;;;;;;;;;5035830;28;20455;-58
2021/06/03 06:13:56;;;;;;;6.77;2.50;;;;;;;;;;5036360;28;20504;-62
2021/06/03 06:16:23;;;;;;;6.00;2.13;;;;;;;;;;5036367;28;20494;-56
2021/06/03 06:18:50;;;;;;;3.03;1.83;;;;;;;;;;5036433;28;20435;-61
2021/06/03 06:21:32;;;;;;;4.10;2.13;;;;;;;;;;5039413;28;20459;-58
2021/06/03 06:24:00;;;;;;;6.60;2.70;;;;;;;;;;5056864;28;20508;-55
2021/06/03 06:26:30;;;;;;;4.30;2.70;;;;;;;;;;5056705;28;20458;-53
2021/06/03 06:28:57;;;;;;;7.40;2.50;;;;;;;;;;5056292;28;20442;-58
2021/06/03 06:31:43;;;;;;;3.93;2.43;;;;;;;;;;5055703;28;20454;-61
2021/06/03 06:34:10;;;;;;;3.73;2.30;;;;;;;;;;5055899;28;20449;-57
2021/06/03 06:36:37;;;;;;;4.17;2.40;;;;;;;;;;5055400;28;20524;-59
2021/06/03 06:39:05;;;;;;;3.80;2.40;;;;;;;;;;5055997;28;20449;-54
2021/06/03 06:41:34;;;;;;;3.90;2.47;;;;;;;;;;5055655;28;20465;-61
2021/06/03 06:44:01;;;;;;;6.30;2.80;;;;;;;;;;5055022;28;20457;-55
2021/06/03 06:46:27;;;;;;;4.07;2.33;;;;;;;;;;5054598;28;20454;-59
2021/06/03 06:48:55;;;;;;;4.33;2.00;;;;;;;;;;5035231;28;20479;-57
2021/06/03 06:51:37;;;;;;;5.37;2.60;;;;;;;;;;5035502;28;20471;-59
2021/06/03 06:54:04;;;;;;;4.33;2.30;;;;;;;;;;5045237;28;20551;-51
2021/06/03 06:56:31;;;;;;;8.70;2.70;;;;;;;;;;5039036;28;20526;-61
2021/06/03 06:59:00;;;;;;;6.33;2.10;;;;;;;;;;5052887;28;20450;-58
2021/06/03 07:01:27;;;;;;;6.90;2.50;;;;;;;;;;5033994;28;20518;-54
2021/06/03 07:04:01;;;;;;;5.77;2.50;;;;;;;;;;5048643;28;20442;-60
2021/06/03 07:06:28;;;;;;;4.50;3.00;;;;;;;;;;5054110;28;20506;-58
2021/06/03 07:08:54;;;;;;;3.23;2.20;;;;;;;;;;5053598;28;20454;-61
2021/06/03 07:11:23;;;;;;;6.10;2.50;;;;;;;;;;5054157;28;20462;-54
2021/06/03 07:13:49;;;;;;;4.73;3.00;;;;;;;;;;5049254;28;20475;-49
2021/06/03 07:16:24;;;;;;;7.07;3.53;;;;;;;;;;5035096;28;20450;-54
2021/06/03 07:18:52;;;;;;;5.80;3.40;;;;;;;;;;5035702;28;20478;-59
2021/06/03 07:21:19;;;;;;;6.07;3.00;;;;;;;;;;5055355;28;20876;-61
2021/06/03 07:23:46;;;;;;;4.17;3.03;;;;;;;;;;5054064;28;20446;-60
2021/06/03 07:26:13;;;;;;;5.60;2.80;;;;;;;;;;5053883;28;20500;-54
2021/06/03 07:28:42;;;;;;;4.60;2.83;;;;;;;;;;5053992;28;20446;-52
2021/06/03 07:31:10;;;;;;;3.30;2.13;;;;;;;;;;5052758;28;20505;-59
2021/06/03 07:33:40;;;;;;;6.17;3.13;;;;;;;;;;5052937;28;20484;-58
2021/06/03 07:36:08;;;;;;;6.87;3.00;;;;;;;;;;5053520;28;20919;-57
2021/06/03 07:38:35;;;;;;;8.40;2.90;;;;;;;;;;5054576;28;20533;-50
2021/06/03 07:41:02;;;;;;;5.10;2.90;;;;;;;;;;5041996;28;20467;-59
2021/06/03 07:43:28;;;;;;;5.50;2.80;;;;;;;;;;5035215;28;20462;-55
2021/06/03 07:45:58;;;;;;;5.47;2.77;;;;;;;;;;5034523;28;20625;-57
2021/06/03 07:48:25;;;;;;;4.10;2.47;;;;;;;;;;5034391;28;20530;-58
2021/06/03 07:50:53;;;;;;;7.57;3.10;;;;;;;;;;5054431;28;20477;-55
2021/06/03 07:53:31;;;;;;;5.70;3.43;;;;;;;;;;5045807;28;20486;-61
2021/06/03 07:56:00;;;;;;;4.30;2.63;;;;;;;;;;5054740;28;20442;-58
2021/06/03 07:58:27;;;;;;;7.17;3.50;;;;;;;;;;5054051;28;20446;-57
2021/06/03 08:00:54;;;;;;;4.40;2.97;;;;;;;;;;5054033;28;20462;-57
2021/06/03 08:03:32;;;;;;;6.60;2.97;;;;;;;;;;5054182;28;20462;-56
2021/06/03 08:06:00;;;;;;;5.83;3.00;;;;;;;;;;5053769;28;20454;-55
2021/06/03 08:08:27;;;;;;;9.37;2.80;;;;;;;;;;5057475;28;20468;-57
2021/06/03 08:11:01;;;;;;;4.80;2.80;;;;;;;;;;5057736;28;20449;-54
2021/06/03 08:13:28;;;;;;;4.50;2.90;;;;;;;;;;5057340;28;20497;-55
2021/06/03 08:15:56;;;;;;;4.90;2.80;;;;;;;;;;5057744;28;20430;-60
2021/06/03 08:18:29;;;;;;;4.50;3.60;;;;;;;;;;5057896;28;20466;-61
2021/06/03 08:20:57;;;;;;;7.40;3.70;;;;;;;;;;5039545;28;20465;-61
2021/06/03 08:23:26;;;;;;;6.63;3.50;;;;;;;;;;5036461;28;20446;-54
2021/06/03 08:26:05;;;;;;;5.63;3.30;;;;;;;;;;5036625;28;20471;-58
2021/06/03 08:28:32;;;;;;;4.97;3.67;;;;;;;;;;5037748;28;20467;-58
2021/06/03 08:31:00;;;;;;;6.37;4.00;;;;;;;;;;5048010;28;20445;-61
2021/06/03 08:33:28;;;;;;;6.30;3.17;;;;;;;;;;5040189;28;20455;-57
2021/06/03 08:35:56;;;;;;;5.43;2.87;;;;;;;;;;5037199;28;20503;-61
2021/06/03 08:38:23;;;;;;;8.20;4.07;;;;;;;;;;5037720;28;20442;-59
2021/06/03 08:40:56;;;;;;;5.00;3.30;;;;;;;;;;5036822;28;20454;-62
2021/06/03 08:43:23;;;;;;;3.90;2.87;;;;;;;;;;5049722;28;20593;-60
2021/06/03 08:45:52;;;;;;;4.53;3.17;;;;;;;;;;5053062;28;20438;-60
2021/06/03 08:48:46;;;;;;;4.50;3.00;;;;;;;;;;5056938;28;20549;-57
2021/06/03 08:51:13;;;;;;;6.83;3.37;;;;;;;;;;5054305;28;20461;-59
2021/06/03 08:53:42;;;;;;;7.40;4.33;;;;;;;;;;5042646;28;20494;-58
2021/06/03 08:56:29;;;;;;;5.80;3.20;;;;;;;;;;5035726;28;20442;-56
2021/06/03 08:59:00;;;;;;;5.63;3.23;;;;;;;;;;5038391;28;20998;-56
2021/06/03 09:01:28;;;;;;;4.90;3.23;;;;;;;;;;5042751;28;20527;-57
2021/06/03 09:04:13;;;;;;;5.50;3.80;;;;;;;;;;5035126;28;20463;-61
2021/06/03 09:06:40;;;;;;;6.10;3.63;;;;;;;;;;5035139;28;20469;-55
2021/06/03 09:09:13;;;;;;;9.40;4.30;;;;;;;;;;5044678;28;20446;-56
2021/06/03 09:11:41;;;;;;;5.10;3.67;;;;;;;;;;5056324;28;20519;-54
2021/06/03 09:14:16;;;;;;;7.17;3.87;;;;;;;;;;5051630;28;20497;-57
2021/06/03 09:16:53;;;;;;;6.60;4.37;;;;;;;;;;5035557;28;20452;-54
2021/06/03 09:19:20;;;;;;;11.70;4.20;;;;;;;;;;5034024;28;20482;-57
2021/06/03 09:21:52;;;;;;;6.27;4.47;;;;;;;;;;5035257;28;20419;-61
2021/06/03 09:24:20;;;;;;;7.60;5.07;;;;;;;;;;5036570;28;20517;-59
2021/06/03 09:26:53;;;;;;;6.83;4.80;;;;;;;;;;5036601;28;20806;-58
2021/06/03 09:29:23;;;;;;;8.13;4.63;;;;;;;;;;5051385;28;20457;-58
2021/06/03 09:31:50;;;;;;;8.73;5.20;;;;;;;;;;5036000;28;20543;-57
2021/06/03 09:34:18;;;;;;;7.23;4.83;;;;;;;;;;5035542;28;20502;-58
2021/06/03 09:36:46;;;;;;;6.37;4.67;;;;;;;;;;5034841;28;20457;-59
2021/06/03 09:39:15;;;;;;;7.70;5.50;;;;;;;;;;5034016;28;20467;-56
2021/06/03 09:41:47;;;;;;;9.47;7.60;;;;;;;;;;5034482;28;20459;-59
2021/06/03 09:44:16;;;;;;;9.93;6.83;;;;;;;;;;5038789;28;20463;-60
2021/06/03 09:46:46;;;;;;;12.53;8.50;;;;;;;;;;5042773;28;20467;-61
2021/06/03 09:49:18;;;;;;;9.60;8.60;;;;;;;;;;5047315;28;20471;-59
2021/06/03 09:51:46;;;;;;;16.07;6.77;;;;;;;;;;5035346;28;20530;-59
2021/06/03 09:54:15;;;;;;;11.53;6.93;;;;;;;;;;5047096;28;20491;-61
2021/06/03 09:56:44;;;;;;;12.17;8.67;;;;;;;;;;5045838;28;20521;-58
2021/06/03 09:59:17;;;;;;;8.30;7.00;;;;;;;;;;5047469;28;20490;-59
2021/06/03 10:02:03;;;;;;;7.13;6.40;;;;;;;;;;5055791;28;20473;-60
2021/06/03 10:04:36;;;;;;;10.80;6.80;;;;;;;;;;5053771;28;20486;-60
2021/06/03 10:07:04;;;;;;;13.23;11.90;;;;;;;;;;5055370;28;20461;-54
2021/06/03 10:09:46;;;;;;;9.57;7.10;;;;;;;;;;5035571;28;20477;-60
2021/06/03 10:12:16;;;;;;;9.70;5.87;;;;;;;;;;5035502;28;20455;-61
2021/06/03 10:14:44;;;;;;;6.00;4.30;;;;;;;;;;5034922;28;20551;-57
2021/06/03 10:17:19;;;;;;;8.83;5.13;;;;;;;;;;5042940;28;20469;-53
2021/06/03 10:19:49;;;;;;;7.97;7.10;;;;;;;;;;5054817;28;20453;-54
2021/06/03 10:22:17;;;;;;;57.83;52.40;;;;;;;;;;5051969;28;20461;-60
2021/06/03 10:25:00;;;;;;;80.00;73.87;;;;;;;;;;5043826;28;20470;-51
2021/06/03 10:27:32;;;;;;;11.40;8.70;;;;;;;;;;5046710;28;20489;-60
2021/06/03 10:30:02;;;;;;;9.73;7.80;;;;;;;;;;5040435;28;20494;-62
2021/06/03 10:32:31;;;;;;;7.97;5.47;;;;;;;;;;5043109;28;20510;-61
2021/06/03 10:35:02;;;;;;;5.90;3.90;;;;;;;;;;5042038;28;20466;-61
2021/06/03 10:37:31;;;;;;;6.30;4.43;;;;;;;;;;5049243;28;20463;-59
2021/06/03 10:40:00;;;;;;;8.50;4.40;;;;;;;;;;5050353;28;20454;-57
2021/06/03 10:42:28;;;;;;;7.00;4.50;;;;;;;;;;5048479;28;20447;-55
2021/06/03 10:45:16;;;;;;;9.87;5.80;;;;;;;;;;5037231;28;20459;-58
2021/06/03 10:47:43;;;;;;;9.23;5.90;;;;;;;;;;5035225;28;20455;-57
2021/06/03 10:50:16;;;;;;;9.93;5.57;;;;;;;;;;5034177;28;20480;-60
2021/06/03 10:52:47;;;;;;;7.03;4.63;;;;;;;;;;5034668;28;20698;-58
2021/06/03 10:55:24;;;;;;;8.30;4.80;;;;;;;;;;5046303;28;20461;-59
2021/06/03 10:57:53;;;;;;;5.50;4.10;;;;;;;;;;5051440;28;21551;-58
2021/06/03 11:00:24;;;;;;;10.80;5.87;;;;;;;;;;5048433;28;20466;-57
2021/06/03 11:06:17;;;;;;;6.17;4.30;;;;;;;;;;5036520;28;20489;-59
2021/06/03 11:08:46;;;;;;;6.17;3.50;;;;;;;;;;5055017;28;20452;-56
2021/06/03 11:11:28;;;;;;;7.70;4.90;;;;;;;;;;5036353;28;20463;-60
2021/06/03 11:14:26;;;;;;;7.57;5.33;;;;;;;;;;5035717;28;20481;-55
2021/06/03 11:17:13;;;;;;;10.13;5.90;;;;;;;;;;5042325;28;20467;-56
2021/06/03 11:20:05;;;;;;;8.37;4.87;;;;;;;;;;5033932;28;20455;-58
2021/06/03 11:22:39;;;;;;;6.87;5.07;;;;;;;;;;5035311;28;20470;-59
2021/06/03 11:25:26;;;;;;;9.37;4.60;;;;;;;;;;5047865;28;20450;-60
2021/06/03 11:27:54;;;;;;;10.23;5.10;;;;;;;;;;5053365;28;20478;-54
2021/06/03 11:30:32;;;;;;;10.87;5.47;;;;;;;;;;5047322;28;20493;-56
2021/06/03 11:33:00;;;;;;;6.97;4.37;;;;;;;;;;5041286;28;20537;-60
2021/06/03 11:35:33;;;;;;;9.30;4.60;;;;;;;;;;5053569;28;20442;-60
2021/06/03 11:38:05;;;;;;;8.80;4.50;;;;;;;;;;5046620;28;20540;-61
2021/06/03 11:40:32;;;;;;;5.77;3.97;;;;;;;;;;5053051;28;20462;-55
2021/06/03 11:43:07;;;;;;;6.10;3.30;;;;;;;;;;5045626;28;20458;-62
2021/06/03 11:45:36;;;;;;;9.23;3.40;;;;;;;;;;5052738;28;20453;-58
2021/06/03 11:48:05;;;;;;;4.70;3.07;;;;;;;;;;5052638;28;20447;-56
2021/06/03 11:50:39;;;;;;;7.90;4.40;;;;;;;;;;5053056;28;20510;-60
2021/06/03 11:53:12;;;;;;;6.63;3.50;;;;;;;;;;5048172;28;20476;-59
2021/06/03 11:55:39;;;;;;;5.67;4.37;;;;;;;;;;5053418;28;20470;-59
2021/06/03 11:58:11;;;;;;;6.43;3.67;;;;;;;;;;5054064;28;20473;-61
2021/06/03 12:00:39;;;;;;;5.23;4.07;;;;;;;;;;5046948;28;20465;-58
2021/06/03 12:03:26;;;;;;;9.40;4.50;;;;;;;;;;5051206;28;20473;-59
2021/06/03 12:05:55;;;;;;;3.67;2.50;;;;;;;;;;5035483;28;20494;-60
2021/06/03 12:08:41;;;;;;;6.87;4.03;;;;;;;;;;5049627;28;20663;-52
2021/06/03 12:11:10;;;;;;;6.27;4.27;;;;;;;;;;5049676;28;20449;-59
2021/06/03 12:13:52;;;;;;;5.37;3.30;;;;;;;;;;5050365;28;20517;-59
2021/06/03 12:16:21;;;;;;;4.73;3.43;;;;;;;;;;5034260;28;20449;-59
2021/06/03 12:18:48;;;;;;;7.23;4.17;;;;;;;;;;5053487;28;20472;-54
2021/06/03 12:21:22;;;;;;;7.13;3.73;;;;;;;;;;5052171;28;20506;-60
2021/06/03 12:23:53;;;;;;;10.37;4.90;;;;;;;;;;5053098;28;20464;-57
2021/06/03 12:26:23;;;;;;;6.37;4.37;;;;;;;;;;5039699;28;20462;-55
2021/06/03 12:28:53;;;;;;;5.27;3.77;;;;;;;;;;5033423;28;20463;-57
2021/06/03 12:31:25;;;;;;;5.73;4.00;;;;;;;;;;5049646;28;20470;-59
2021/06/03 12:33:53;;;;;;;5.13;3.47;;;;;;;;;;5034239;28;20475;-60
2021/06/03 12:36:25;;;;;;;7.40;5.37;;;;;;;;;;5034103;28;20449;-57
2021/06/03 12:38:55;;;;;;;6.93;3.53;;;;;;;;;;5048914;28;20464;-61
2021/06/03 12:41:24;;;;;;;8.53;3.90;;;;;;;;;;5031167;28;20486;-59
2021/06/03 12:43:52;;;;;;;6.13;4.20;;;;;;;;;;5029869;28;20493;-60
2021/06/03 12:46:20;;;;;;;8.27;4.20;;;;;;;;;;5035996;28;20466;-60
2021/06/03 12:49:00;;;;;;;8.33;5.07;;;;;;;;;;5037056;28;20718;-54
2021/06/03 12:51:27;;;;;;;8.17;5.93;;;;;;;;;;5044654;28;20538;-56
2021/06/03 12:57:07;;;;;;;6.60;3.37;;;;;;;;;;5039223;28;20460;-60
2021/06/03 12:59:37;;;;;;;4.50;3.60;;;;;;;;;;5053270;28;20466;-57
2021/06/03 13:02:06;;;;;;;6.97;4.00;;;;;;;;;;5053942;28;20434;-60
2021/06/03 13:04:34;;;;;;;6.90;4.20;;;;;;;;;;5049852;28;20459;-56
2021/06/03 13:07:01;;;;;;;5.60;4.50;;;;;;;;;;5053652;28;20450;-60
2021/06/03 13:09:51;;;;;;;5.93;3.87;;;;;;;;;;5054772;28;20461;-59
2021/06/03 13:12:30;;;;;;;7.17;3.20;;;;;;;;;;5040707;28;20467;-60
2021/06/03 13:14:58;;;;;;;5.23;3.57;;;;;;;;;;5034008;28;20664;-52
2021/06/03 13:17:35;;;;;;;7.93;4.43;;;;;;;;;;5052208;28;20500;-58
2021/06/03 13:20:11;;;;;;;5.43;3.37;;;;;;;;;;5041998;28;20492;-53
2021/06/03 13:22:38;;;;;;;4.20;2.60;;;;;;;;;;5041475;28;20499;-60
2021/06/03 13:25:10;;;;;;;4.80;3.17;;;;;;;;;;5040880;28;20463;-60
2021/06/03 13:27:45;;;;;;;5.90;3.53;;;;;;;;;;5038779;28;20459;-56
2021/06/03 13:30:14;;;;;;;6.67;4.63;;;;;;;;;;5055984;28;20465;-60
2021/06/03 13:32:42;;;;;;;10.33;7.50;;;;;;;;;;5055796;28;20457;-58
2021/06/03 13:35:12;;;;;;;4.40;3.03;;;;;;;;;;5036489;28;20447;-57
2021/06/03 13:37:40;;;;;;;4.50;2.83;;;;;;;;;;5042427;28;20505;-59
2021/06/03 13:40:22;;;;;;;4.63;2.93;;;;;;;;;;5041182;28;20462;-58
2021/06/03 13:43:02;;;;;;;6.97;3.50;;;;;;;;;;5049165;28;20451;-61
2021/06/03 13:45:37;;;;;;;4.90;3.20;;;;;;;;;;5036501;28;20466;-55
2021/06/03 13:48:10;;;;;;;8.63;4.30;;;;;;;;;;5050283;28;20470;-54
2021/06/03 13:50:40;;;;;;;9.33;6.50;;;;;;;;;;5053598;28;20469;-54
2021/06/03 13:53:10;;;;;;;21.30;17.70;;;;;;;;;;5054697;28;20903;-59
2021/06/03 13:55:47;;;;;;;6.87;5.10;;;;;;;;;;5053975;28;20454;-54
2021/06/03 13:58:29;;;;;;;5.30;3.17;;;;;;;;;;5041899;28;20439;-58
2021/06/03 14:01:05;;;;;;;4.50;3.40;;;;;;;;;;5034177;28;20466;-55
2021/06/03 14:03:36;;;;;;;5.30;3.90;;;;;;;;;;5036275;28;20493;-57
2021/06/03 14:06:03;;;;;;;4.53;3.33;;;;;;;;;;5032214;28;20467;-62
2021/06/03 14:08:31;;;;;;;8.07;4.50;;;;;;;;;;5039087;28;20490;-54
2021/06/03 14:11:09;;;;;;;7.43;5.27;;;;;;;;;;5033684;28;20623;-50
2021/06/03 14:13:54;;;;;;;5.03;3.70;;;;;;;;;;5034005;28;20478;-55
2021/06/03 14:16:34;;;;;;;4.30;3.10;;;;;;;;;;5039871;28;20640;-60
2021/06/03 14:19:21;;;;;;;6.17;3.47;;;;;;;;;;5042249;28;20458;-59
2021/06/03 14:21:52;;;;;;;7.63;5.20;;;;;;;;;;5042752;28;20713;-53
2021/06/03 14:24:27;;;;;;;6.07;3.93;;;;;;;;;;5034935;28;20518;-58
2021/06/03 14:26:54;;;;;;;5.90;4.00;;;;;;;;;;5032918;28;20489;-59
2021/06/03 14:29:23;;;;;;;9.83;7.97;;;;;;;;;;5032462;28;20545;-52
2021/06/03 14:31:57;;;;;;;9.00;4.63;;;;;;;;;;5053112;28;20471;-60
2021/06/03 14:34:32;;;;;;;6.80;5.07;;;;;;;;;;5053950;28;20518;-56
2021/06/03 14:37:01;;;;;;;10.90;4.97;;;;;;;;;;5053266;28;20896;-56
2021/06/03 14:39:44;;;;;;;6.07;3.50;;;;;;;;;;5052444;28;20480;-58
2021/06/03 14:42:34;;;;;;;11.43;9.10;;;;;;;;;;5052538;28;20477;-60
2021/06/03 14:45:08;;;;;;;11.40;8.40;;;;;;;;;;5033793;28;20450;-57
2021/06/03 14:47:37;;;;;;;6.10;3.90;;;;;;;;;;5032969;28;20467;-59
2021/06/03 14:50:14;;;;;;;7.67;2.50;;;;;;;;;;5034995;28;20462;-58
2021/06/03 14:52:49;;;;;;;8.93;7.23;;;;;;;;;;5035002;28;20524;-59
2021/06/03 14:55:19;;;;;;;9.30;3.30;;;;;;;;;;5030495;28;20442;-55
2021/06/03 14:57:47;;;;;;;4.90;2.93;;;;;;;;;;5030243;28;20462;-58
2021/06/03 15:00:43;;;;;;;5.10;3.53;;;;;;;;;;5040779;28;20517;-61
2021/06/03 15:03:11;;;;;;;5.33;3.37;;;;;;;;;;5051318;28;20473;-52
2021/06/03 15:05:39;;;;;;;10.33;7.90;;;;;;;;;;5050970;28;20456;-57
2021/06/03 15:08:08;;;;;;;13.40;11.83;;;;;;;;;;5050585;28;20446;-57
2021/06/03 15:10:35;;;;;;;5.40;3.73;;;;;;;;;;5037068;28;20459;-56